createdAt,value
2023-06-10T00:01:25.639Z,101768.94
2023-06-10T00:03:53.324Z,101765.94
2023-06-10T00:06:20.057Z,101768.16
2023-06-10T00:08:48.329Z,101765.13
2023-06-10T00:11:14.968Z,101762.78
2023-06-10T00:13:41.922Z,101765.66
2023-06-10T00:16:08.621Z,101775.94
2023-06-10T00:18:38.128Z,101776.13
2023-06-10T00:21:06.008Z,101772.59
2023-06-10T00:23:32.890Z,101772.59
2023-06-10T00:26:00.594Z,101768.38
2023-06-10T00:28:27.191Z,101768.56
2023-06-10T00:30:53.816Z,101770.41
2023-06-10T00:33:20.430Z,101770.56
2023-06-10T00:35:47.200Z,101769.25
2023-06-10T00:38:15.929Z,101777.47
2023-06-10T00:40:43.114Z,101781.34
2023-06-10T00:43:10.370Z,101777.63
2023-06-10T00:45:36.985Z,101779.66
2023-06-10T00:48:04.937Z,101776.31
2023-06-10T00:50:32.485Z,101785.22
2023-06-10T00:53:00.801Z,101785.38
2023-06-10T00:55:28.333Z,101778.81
2023-06-10T00:57:55.625Z,101781.69
2023-06-10T01:00:22.319Z,101773.94
2023-06-10T01:02:50.470Z,101781.19
2023-06-10T01:05:17.326Z,101783.69
2023-06-10T01:08:02.613Z,101787.38
2023-06-10T01:10:39.288Z,101788.06
2023-06-10T01:13:13.012Z,101784.03
2023-06-10T01:15:39.994Z,101781.88
2023-06-10T01:18:10.779Z,101777.53
2023-06-10T01:20:41.700Z,101791.00
2023-06-10T01:23:09.125Z,101783.59
2023-06-10T01:25:45.369Z,101783.75
2023-06-10T01:28:45.022Z,101789.81
2023-06-10T01:31:19.514Z,101784.78
2023-06-10T01:33:53.612Z,101787.47
2023-06-10T01:36:23.777Z,101781.25
2023-06-10T01:38:51.574Z,101787.78
2023-06-10T01:41:19.772Z,101775.72
2023-06-10T01:43:47.187Z,101791.16
2023-06-10T01:46:14.354Z,101789.84
2023-06-10T01:48:43.050Z,101790.34
2023-06-10T01:51:09.977Z,101789.00
2023-06-10T01:53:36.687Z,101792.34
2023-06-10T01:56:03.375Z,101796.22
2023-06-10T01:58:29.988Z,101794.91
2023-06-10T02:00:56.704Z,101789.16
2023-06-10T02:03:23.572Z,101790.31
2023-06-10T02:05:50.678Z,101797.22
2023-06-10T02:08:17.581Z,101798.91
2023-06-10T02:10:44.395Z,101796.06
2023-06-10T02:13:11.084Z,101798.75
2023-06-10T02:15:37.654Z,101800.94
2023-06-10T02:18:04.551Z,101800.25
2023-06-10T02:20:31.175Z,101802.44
2023-06-10T02:22:58.671Z,101796.41
2023-06-10T02:25:25.308Z,101786.50
2023-06-10T02:27:51.870Z,101802.59
2023-06-10T02:30:18.633Z,101803.44
2023-06-10T02:32:48.982Z,101802.44
2023-06-10T02:35:16.861Z,101804.47
2023-06-10T02:37:43.647Z,101807.47
2023-06-10T02:40:11.586Z,101794.06
2023-06-10T02:42:38.330Z,101799.25
2023-06-10T02:45:05.400Z,101799.09
2023-06-10T02:47:32.079Z,101802.78
2023-06-10T02:49:58.696Z,101802.97
2023-06-10T02:52:26.103Z,101806.66
2023-06-10T02:54:52.760Z,101808.81
2023-06-10T02:57:19.358Z,101799.09
2023-06-10T02:59:46.208Z,101795.75
2023-06-10T03:02:13.131Z,101794.56
2023-06-10T03:04:39.711Z,101798.06
2023-06-10T03:07:08.384Z,101807.16
2023-06-10T03:09:35.707Z,101802.78
2023-06-10T03:12:02.336Z,101802.75
2023-06-10T03:14:29.132Z,101809.97
2023-06-10T03:16:55.775Z,101802.25
2023-06-10T03:19:22.526Z,101812.50
2023-06-10T03:21:51.284Z,101808.28
2023-06-10T03:24:18.579Z,101809.78
2023-06-10T03:26:45.226Z,101810.63
2023-06-10T03:29:11.811Z,101816.00
2023-06-10T03:31:39.900Z,101815.16
2023-06-10T03:34:06.562Z,101819.69
2023-06-10T03:36:33.162Z,101816.34
2023-06-10T03:38:59.828Z,101827.25
2023-06-10T03:41:26.869Z,101824.03
2023-06-10T03:43:53.508Z,101821.53
2023-06-10T03:46:20.380Z,101816.00
2023-06-10T03:48:47.123Z,101829.09
2023-06-10T03:51:13.668Z,101821.72
2023-06-10T03:53:40.309Z,101818.69
2023-06-10T03:56:07.034Z,101831.63
2023-06-10T03:58:33.646Z,101832.44
2023-06-10T04:01:00.279Z,101823.03
2023-06-10T04:03:27.364Z,101823.03
2023-06-10T04:05:54.006Z,101836.78
2023-06-10T04:08:21.748Z,101827.25
2023-06-10T04:10:48.383Z,101833.63
2023-06-10T04:13:15.761Z,101831.59
2023-06-10T04:15:42.361Z,101832.09
2023-06-10T04:18:09.644Z,101828.91
2023-06-10T04:20:36.425Z,101826.53
2023-06-10T04:23:03.264Z,101834.75
2023-06-10T04:25:30.012Z,101837.59
2023-06-10T04:27:56.665Z,101832.91
2023-06-10T04:30:23.483Z,101839.13
2023-06-10T04:32:50.144Z,101850.38
2023-06-10T04:35:17.058Z,101846.00
2023-06-10T04:37:43.736Z,101846.84
2023-06-10T04:40:11.134Z,101854.53
2023-06-10T04:42:38.077Z,101843.31
2023-06-10T04:45:05.158Z,101840.09
2023-06-10T04:47:34.783Z,101853.22
2023-06-10T04:50:02.278Z,101845.47
2023-06-10T04:52:28.933Z,101849.69
2023-06-10T04:54:55.673Z,101851.69
2023-06-10T04:57:22.995Z,101851.38
2023-06-10T04:59:49.676Z,101847.00
2023-06-10T05:02:16.457Z,101852.00
2023-06-10T05:04:43.146Z,101848.00
2023-06-10T05:07:09.942Z,101854.56
2023-06-10T05:09:36.924Z,101859.44
2023-06-10T05:12:04.270Z,101854.75
2023-06-10T05:14:30.853Z,101858.94
2023-06-10T05:16:57.532Z,101859.94
2023-06-10T05:19:24.689Z,101849.06
2023-06-10T05:21:51.306Z,101854.09
2023-06-10T05:24:17.958Z,101856.44
2023-06-10T05:26:44.567Z,101853.25
2023-06-10T05:29:11.596Z,101856.28
2023-06-10T05:31:38.306Z,101854.78
2023-06-10T05:34:04.937Z,101857.13
2023-06-10T05:36:31.564Z,101854.31
2023-06-10T05:38:58.306Z,101858.34
2023-06-10T05:41:25.031Z,101857.16
2023-06-10T05:43:51.649Z,101852.63
2023-06-10T05:46:18.342Z,101855.66
2023-06-10T05:48:44.962Z,101859.69
2023-06-10T05:51:11.726Z,101862.38
2023-06-10T05:53:39.396Z,101861.88
2023-06-10T05:56:06.068Z,101866.75
2023-06-10T05:58:32.783Z,101869.09
2023-06-10T06:00:59.673Z,101865.22
2023-06-10T06:03:26.526Z,101863.06
2023-06-10T06:05:53.283Z,101861.03
2023-06-10T06:08:20.016Z,101853.81
2023-06-10T06:10:48.263Z,101860.50
2023-06-10T06:13:14.886Z,101867.06
2023-06-10T06:15:41.761Z,101855.31
2023-06-10T06:18:08.407Z,101861.22
2023-06-10T06:20:35.067Z,101862.72
2023-06-10T06:23:01.712Z,101860.69
2023-06-10T06:25:28.372Z,101869.25
2023-06-10T06:27:55.021Z,101856.66
2023-06-10T06:30:21.765Z,101860.00
2023-06-10T06:32:48.400Z,101864.69
2023-06-10T06:35:15.011Z,101863.00
2023-06-10T06:37:41.686Z,101868.91
2023-06-10T06:40:08.920Z,101860.00
2023-06-10T06:42:35.499Z,101864.22
2023-06-10T06:45:02.112Z,101865.53
2023-06-10T06:47:28.824Z,101865.38
2023-06-10T06:49:55.530Z,101858.97
2023-06-10T06:52:23.343Z,101862.84
2023-06-10T06:54:50.500Z,101855.41
2023-06-10T06:57:17.180Z,101856.09
2023-06-10T06:59:43.809Z,101852.22
2023-06-10T07:02:11.669Z,101856.59
2023-06-10T07:04:38.326Z,101853.56
2023-06-10T07:07:06.072Z,101860.63
2023-06-10T07:09:32.705Z,101865.47
2023-06-10T07:11:59.276Z,101863.63
2023-06-10T07:14:26.053Z,101858.91
2023-06-10T07:16:52.721Z,101859.56
2023-06-10T07:19:19.505Z,101863.59
2023-06-10T07:21:46.227Z,101855.69
2023-06-10T07:24:12.915Z,101859.72
2023-06-10T07:26:39.721Z,101861.03
2023-06-10T07:29:06.377Z,101857.16
2023-06-10T07:31:33.075Z,101866.56
2023-06-10T07:34:00.111Z,101860.84
2023-06-10T07:36:28.554Z,101855.09
2023-06-10T07:38:58.161Z,101859.78
2023-06-10T07:41:28.696Z,101862.13
2023-06-10T07:43:58.143Z,101848.34
2023-06-10T07:46:25.723Z,101866.00
2023-06-10T07:48:52.626Z,101866.50
2023-06-10T07:51:19.349Z,101871.16
2023-06-10T07:53:46.012Z,101865.59
2023-06-10T07:56:12.686Z,101864.22
2023-06-10T07:58:39.385Z,101862.03
2023-06-10T08:01:06.175Z,101873.28
2023-06-10T08:03:32.977Z,101868.19
2023-06-10T08:05:59.749Z,101868.50
2023-06-10T08:08:26.441Z,101875.41
2023-06-10T08:10:53.119Z,101875.03
2023-06-10T08:13:19.744Z,101869.47
2023-06-10T08:15:48.936Z,101877.03
2023-06-10T08:18:15.514Z,101871.63
2023-06-10T08:20:42.136Z,101867.91
2023-06-10T08:23:08.746Z,101877.97
2023-06-10T08:25:35.377Z,101882.16
2023-06-10T08:28:01.992Z,101879.78
2023-06-10T08:30:28.586Z,101875.91
2023-06-10T08:32:55.218Z,101874.50
2023-06-10T08:35:21.821Z,101873.66
2023-06-10T08:37:48.785Z,101870.47
2023-06-10T08:40:15.608Z,101878.63
2023-06-10T08:42:49.415Z,101880.16
2023-06-10T08:45:19.987Z,101878.78
2023-06-10T08:47:52.043Z,101873.03
2023-06-10T08:50:19.759Z,101871.00
2023-06-10T08:52:49.358Z,101884.75
2023-06-10T08:55:32.782Z,101877.31
2023-06-10T08:58:01.313Z,101871.94
2023-06-10T09:00:29.815Z,101876.31
2023-06-10T09:02:57.895Z,101880.13
2023-06-10T09:05:25.038Z,101880.13
2023-06-10T09:07:53.990Z,101884.97
2023-06-10T09:10:20.952Z,101876.69
2023-06-10T09:12:47.654Z,101880.72
2023-06-10T09:15:15.718Z,101882.66
2023-06-10T09:17:42.622Z,101878.94
2023-06-10T09:20:11.022Z,101882.94
2023-06-10T09:22:38.683Z,101869.47
2023-06-10T09:25:11.450Z,101880.34
2023-06-10T09:27:54.778Z,101876.44
2023-06-10T09:30:32.457Z,101873.41
2023-06-10T09:33:01.922Z,101887.38
2023-06-10T09:35:31.682Z,101871.00
2023-06-10T09:38:00.825Z,101875.00
2023-06-10T09:40:29.090Z,101874.81
2023-06-10T09:43:04.927Z,101877.16
2023-06-10T09:45:35.127Z,101875.28
2023-06-10T09:48:02.103Z,101870.38
2023-06-10T09:50:29.143Z,101877.25
2023-06-10T10:01:06.139Z,101873.25
2023-06-10T10:03:32.915Z,101868.69
2023-06-10T10:06:03.940Z,101870.63
2023-06-10T10:08:31.441Z,101873.78
2023-06-10T10:10:59.385Z,101858.13
2023-06-10T10:13:28.163Z,101870.72
2023-06-10T10:15:58.141Z,101861.59
2023-06-10T10:18:30.202Z,101868.09
2023-06-10T10:20:58.487Z,101866.03
2023-06-10T10:23:45.618Z,101860.25
2023-06-10T10:26:13.337Z,101859.25
2023-06-10T10:28:49.185Z,101861.56
2023-06-10T10:31:20.035Z,101858.66
2023-06-10T10:33:53.374Z,101858.31
2023-06-10T10:36:20.753Z,101855.78
2023-06-10T10:38:52.651Z,101842.75
2023-06-10T10:41:20.609Z,101853.56
2023-06-10T10:43:47.902Z,101851.16
2023-06-10T10:46:17.667Z,101849.72
2023-06-10T10:48:45.334Z,101848.69
2023-06-10T10:51:12.537Z,101845.78
2023-06-10T10:53:40.221Z,101842.91
2023-06-10T10:56:07.516Z,101839.84
2023-06-10T10:58:34.583Z,101845.88
2023-06-10T11:01:11.220Z,101835.72
2023-06-10T11:03:45.738Z,101839.06
2023-06-10T11:06:19.076Z,101832.63
2023-06-10T11:08:45.886Z,101837.84
2023-06-10T11:11:33.151Z,101826.19
2023-06-10T11:14:02.856Z,101837.47
2023-06-10T11:16:30.715Z,101824.78
2023-06-10T11:18:58.054Z,101828.13
2023-06-10T11:21:28.984Z,101823.56
2023-06-10T11:24:00.289Z,101828.38
2023-06-10T11:26:33.433Z,101817.56
2023-06-10T11:29:00.259Z,101813.66
2023-06-10T11:31:31.386Z,101821.56
2023-06-10T11:34:00.826Z,101822.59
2023-06-10T11:36:29.309Z,101820.53
2023-06-10T11:39:00.137Z,101822.22
2023-06-10T11:41:28.137Z,101814.09
2023-06-10T11:43:58.169Z,101807.28
2023-06-10T11:46:28.492Z,101803.56
2023-06-10T11:49:06.465Z,101804.19
2023-06-10T11:51:37.953Z,101799.41
2023-06-10T11:54:05.725Z,101804.81
2023-06-10T11:56:33.150Z,101793.63
2023-06-10T11:59:10.696Z,101801.56
2023-06-10T12:01:43.162Z,101810.31
2023-06-10T12:04:13.779Z,101806.56
2023-06-10T12:06:43.317Z,101797.44
2023-06-10T12:09:25.310Z,101798.09
2023-06-10T12:12:00.467Z,101798.91
2023-06-10T12:14:56.205Z,101790.63
2023-06-10T12:17:24.193Z,101786.25
2023-06-10T12:19:52.257Z,101785.84
2023-06-10T12:22:20.481Z,101784.81
2023-06-10T12:25:02.548Z,101789.66
2023-06-10T12:27:30.842Z,101779.69
2023-06-10T12:30:02.323Z,101783.03
2023-06-10T12:32:39.672Z,101775.34
2023-06-10T12:35:07.889Z,101774.94
2023-06-10T12:37:34.952Z,101772.44
2023-06-10T12:40:04.137Z,101772.25
2023-06-10T12:42:32.297Z,101767.66
2023-06-10T12:45:01.459Z,101776.22
2023-06-10T12:47:40.091Z,101772.50
2023-06-10T12:50:07.604Z,101768.97
2023-06-10T12:52:34.443Z,101766.66
2023-06-10T12:55:02.320Z,101762.94
2023-06-10T12:57:29.041Z,101766.47
2023-06-10T12:59:58.346Z,101760.03
2023-06-10T13:02:25.472Z,101767.13
2023-06-10T13:04:52.421Z,101764.03
2023-06-10T13:07:19.583Z,101769.25
2023-06-10T13:09:49.967Z,101764.66
2023-06-10T13:12:19.510Z,101762.78
2023-06-10T13:14:49.789Z,101757.56
2023-06-10T13:17:16.493Z,101766.13
2023-06-10T13:19:43.303Z,101754.50
2023-06-10T13:22:10.114Z,101757.00
2023-06-10T13:24:36.990Z,101762.41
2023-06-10T13:27:03.711Z,101760.94
2023-06-10T13:29:31.972Z,101754.72
2023-06-10T13:31:58.697Z,101758.88
2023-06-10T13:34:25.309Z,101756.19
2023-06-10T13:36:51.897Z,101753.28
2023-06-10T13:39:18.673Z,101755.59
2023-06-10T13:41:45.243Z,101746.66
2023-06-10T13:44:11.816Z,101744.56
2023-06-10T13:46:38.585Z,101731.63
2023-06-10T13:49:05.381Z,101739.78
2023-06-10T13:51:31.992Z,101731.47
2023-06-10T13:53:58.585Z,101744.59
2023-06-10T13:56:25.185Z,101737.31
2023-06-10T13:58:51.780Z,101736.28
2023-06-10T14:01:18.482Z,101736.94
2023-06-10T14:03:45.220Z,101734.25
2023-06-10T14:06:14.080Z,101729.28
2023-06-10T14:08:41.006Z,101733.84
2023-06-10T14:11:07.804Z,101734.25
2023-06-10T14:13:35.043Z,101729.69
2023-06-10T14:16:03.989Z,101734.69
2023-06-10T14:18:30.712Z,101737.00
2023-06-10T14:20:57.464Z,101735.97
2023-06-10T14:23:25.642Z,101722.63
2023-06-10T14:25:52.228Z,101727.47
2023-06-10T14:28:18.802Z,101720.38
2023-06-10T14:30:45.480Z,101735.16
2023-06-10T14:33:12.199Z,101732.03
2023-06-10T14:35:38.838Z,101730.19
2023-06-10T14:38:08.272Z,101716.00
2023-06-10T14:40:35.234Z,101726.22
2023-06-10T14:43:02.541Z,101725.19
2023-06-10T14:45:29.154Z,101729.56
2023-06-10T14:47:55.842Z,101718.53
2023-06-10T14:50:22.690Z,101713.97
2023-06-10T14:52:49.312Z,101721.03
2023-06-10T14:55:17.223Z,101720.00
2023-06-10T14:57:43.864Z,101718.94
2023-06-10T15:00:11.256Z,101722.69
2023-06-10T15:02:37.946Z,101719.59
2023-06-10T15:05:04.845Z,101723.97
2023-06-10T15:07:31.464Z,101719.59
2023-06-10T15:09:58.082Z,101702.91
2023-06-10T15:12:26.121Z,101716.69
2023-06-10T15:14:52.715Z,101716.28
2023-06-10T15:17:19.311Z,101715.25
2023-06-10T15:19:46.044Z,101710.03
2023-06-10T15:22:14.107Z,101716.69
2023-06-10T15:24:40.860Z,101714.22
2023-06-10T15:27:07.797Z,101709.63
2023-06-10T15:29:34.418Z,101707.75
2023-06-10T15:32:03.710Z,101710.88
2023-06-10T15:34:30.472Z,101712.72
2023-06-10T15:36:57.153Z,101707.94
2023-06-10T15:39:25.661Z,101707.31
2023-06-10T15:41:52.288Z,101711.50
2023-06-10T15:44:18.882Z,101709.63
2023-06-10T15:46:46.508Z,101703.16
2023-06-10T15:49:13.128Z,101704.84
2023-06-10T15:51:42.150Z,101689.63
2023-06-10T15:54:10.839Z,101694.00
2023-06-10T15:56:37.423Z,101687.56
2023-06-10T15:59:04.190Z,101689.44
2023-06-10T16:01:30.943Z,101687.34
2023-06-10T16:03:57.583Z,101686.13
2023-06-10T16:06:24.266Z,101681.53
2023-06-10T16:12:04.565Z,101670.88
2023-06-10T16:15:02.579Z,101634.63
2023-06-10T16:17:29.178Z,101687.81
2023-06-10T16:19:55.868Z,101684.28
2023-06-10T16:22:22.503Z,101679.44
2023-06-10T16:24:49.093Z,101673.44
2023-06-10T16:27:15.767Z,101665.31
2023-06-10T16:29:42.381Z,101670.13
2023-06-10T16:32:09.274Z,101662.00
2023-06-10T16:34:35.929Z,101678.63
2023-06-10T16:37:02.579Z,101668.88
2023-06-10T16:39:29.201Z,101665.09
2023-06-10T16:41:55.858Z,101673.00
2023-06-10T16:44:22.488Z,101666.56
2023-06-10T16:46:49.116Z,101672.41
2023-06-10T16:49:15.970Z,101678.66
2023-06-10T16:51:42.569Z,101672.19
2023-06-10T16:54:09.449Z,101673.03
2023-06-10T16:56:36.300Z,101675.75
2023-06-10T16:59:03.184Z,101678.25
2023-06-10T17:01:29.944Z,101671.78
2023-06-10T17:03:56.685Z,101676.16
2023-06-10T17:06:23.313Z,101675.34
2023-06-10T17:08:49.979Z,101669.69
2023-06-10T17:11:16.598Z,101674.91
2023-06-10T17:13:43.376Z,101669.91
2023-06-10T17:16:10.091Z,101676.38
2023-06-10T17:18:36.789Z,101673.03
2023-06-10T17:21:03.562Z,101677.22
2023-06-10T17:23:30.173Z,101667.00
2023-06-10T17:25:56.774Z,101678.22
2023-06-10T17:28:23.386Z,101677.00
2023-06-10T17:30:49.953Z,101681.78
2023-06-10T17:33:16.662Z,101680.09
2023-06-10T17:35:43.290Z,101681.78
2023-06-10T17:38:09.861Z,101687.19
2023-06-10T17:40:36.465Z,101685.31
2023-06-10T17:43:03.073Z,101681.16
2023-06-10T17:45:29.678Z,101678.22
2023-06-10T17:47:56.447Z,101686.56
2023-06-10T17:50:23.168Z,101695.13
2023-06-10T17:52:49.739Z,101681.97
2023-06-10T17:55:16.580Z,101695.31
2023-06-10T17:57:43.197Z,101684.69
2023-06-10T18:00:10.039Z,101685.53
2023-06-10T18:02:36.738Z,101686.56
2023-06-10T18:05:03.644Z,101691.78
2023-06-10T18:07:30.519Z,101690.94
2023-06-10T18:09:57.119Z,101696.38
2023-06-10T18:12:24.070Z,101686.38
2023-06-10T18:14:50.739Z,101688.69
2023-06-10T18:17:19.679Z,101685.53
2023-06-10T18:19:46.310Z,101686.16
2023-06-10T18:22:13.135Z,101686.78
2023-06-10T18:24:39.703Z,101688.25
2023-06-10T18:27:07.584Z,101689.09
2023-06-10T18:29:34.151Z,101687.41
2023-06-10T18:32:02.102Z,101689.69
2023-06-10T18:34:30.230Z,101693.88
2023-06-10T18:36:57.031Z,101694.91
2023-06-10T18:39:23.625Z,101696.16
2023-06-10T18:41:50.335Z,101699.28
2023-06-10T18:44:17.163Z,101702.19
2023-06-10T18:46:43.812Z,101700.53
2023-06-10T18:49:10.667Z,101711.16
2023-06-10T18:51:37.246Z,101705.94
2023-06-10T18:54:04.160Z,101709.50
2023-06-10T18:56:30.843Z,101709.91
2023-06-10T18:58:57.452Z,101712.63
2023-06-10T19:01:24.179Z,101714.47
2023-06-10T19:03:51.495Z,101713.06
2023-06-10T19:06:18.145Z,101723.88
2023-06-10T19:08:44.839Z,101717.00
2023-06-10T19:11:13.295Z,101723.66
2023-06-10T19:13:40.666Z,101729.06
2023-06-10T19:16:08.390Z,101723.03
2023-06-10T19:18:35.308Z,101735.72
2023-06-10T19:21:04.392Z,101730.50
2023-06-10T19:23:32.892Z,101735.09
2023-06-10T19:26:01.156Z,101733.59
2023-06-10T19:28:27.819Z,101731.13
2023-06-10T19:30:54.479Z,101735.91
2023-06-10T19:33:21.041Z,101742.16
2023-06-10T19:35:47.733Z,101745.91
2023-06-10T19:38:14.371Z,101741.72
2023-06-10T19:40:41.086Z,101750.69
2023-06-10T19:43:07.756Z,101756.28
2023-06-10T19:45:34.343Z,101744.63
2023-06-10T19:48:01.328Z,101752.50
2023-06-10T19:50:28.083Z,101756.91
2023-06-10T19:52:54.702Z,101750.44
2023-06-10T19:55:21.434Z,101757.53
2023-06-10T19:57:48.067Z,101749.81
2023-06-10T20:00:16.024Z,101759.78
2023-06-10T20:02:42.653Z,101772.50
2023-06-10T20:05:09.553Z,101770.00
2023-06-10T20:07:36.449Z,101763.31
2023-06-10T20:10:03.152Z,101766.00
2023-06-10T20:12:29.778Z,101768.94
2023-06-10T20:14:56.397Z,101766.41
2023-06-10T20:17:23.057Z,101765.34
2023-06-10T20:19:53.512Z,101770.97
2023-06-10T20:22:21.347Z,101776.59
2023-06-10T20:24:48.501Z,101770.75
2023-06-10T20:27:15.254Z,101779.72
2023-06-10T20:29:42.642Z,101790.75
2023-06-10T20:32:09.371Z,101778.44
2023-06-10T20:34:35.978Z,101781.53
2023-06-10T20:37:03.725Z,101785.91
2023-06-10T20:39:30.886Z,101784.22
2023-06-10T20:41:57.458Z,101792.97
2023-06-10T20:44:24.072Z,101790.88
2023-06-10T20:46:51.465Z,101789.19
2023-06-10T20:49:19.278Z,101790.41
2023-06-10T20:51:46.014Z,101801.03
2023-06-10T20:54:12.624Z,101795.59
2023-06-10T20:56:39.242Z,101793.50
2023-06-10T20:59:05.890Z,101797.88
2023-06-10T21:01:32.575Z,101801.41
2023-06-10T21:03:59.378Z,101803.28
2023-06-10T21:06:26.360Z,101800.78
2023-06-10T21:08:53.086Z,101809.09
2023-06-10T21:11:19.659Z,101807.63
2023-06-10T21:13:46.224Z,101810.34
2023-06-10T21:16:13.048Z,101810.53
2023-06-10T21:18:39.669Z,101811.75
2023-06-10T21:21:06.293Z,101815.69
2023-06-10T21:23:32.946Z,101814.03
2023-06-10T21:25:59.813Z,101822.13
2023-06-10T21:28:26.382Z,101818.97
2023-06-10T21:30:53.017Z,101814.81
2023-06-10T21:33:22.425Z,101812.69
2023-06-10T21:35:49.088Z,101816.25
2023-06-10T21:38:15.943Z,101827.06
2023-06-10T21:40:42.517Z,101822.03
2023-06-10T21:43:09.060Z,101820.56
2023-06-10T21:45:35.699Z,101823.47
2023-06-10T21:48:02.422Z,101815.56
2023-06-10T21:50:29.068Z,101822.19
2023-06-10T21:55:22.457Z,101826.31
2023-06-10T21:57:49.067Z,101827.34
2023-06-10T22:00:16.350Z,101826.06
2023-06-10T22:02:43.151Z,101823.31
2023-06-10T22:05:10.173Z,101827.06
2023-06-10T22:07:37.330Z,101821.84
2023-06-10T22:10:04.904Z,101820.34
2023-06-10T22:12:31.718Z,101825.75
2023-06-10T22:14:58.441Z,101820.78
2023-06-10T22:17:25.236Z,101820.28
2023-06-10T22:19:51.960Z,101816.94
2023-06-10T22:22:18.834Z,101813.56
2023-06-10T22:24:50.935Z,101818.53
2023-06-10T22:27:17.622Z,101818.72
2023-06-10T22:29:44.218Z,101818.28
2023-06-10T22:32:11.634Z,101817.19
2023-06-10T22:34:38.641Z,101804.06
2023-06-10T22:37:05.553Z,101821.94
2023-06-10T22:39:32.808Z,101814.25
2023-06-10T22:41:59.397Z,101809.22
2023-06-10T22:44:25.979Z,101811.09
2023-06-10T22:46:52.701Z,101804.38
2023-06-10T22:49:20.652Z,101816.03
2023-06-10T22:51:47.506Z,101813.91
2023-06-10T22:54:15.399Z,101813.06
2023-06-10T22:56:42.119Z,101812.81
2023-06-10T22:59:08.804Z,101812.81
2023-06-10T23:01:35.464Z,101813.66
2023-06-10T23:04:02.437Z,101806.13
2023-06-10T23:06:29.032Z,101804.44
2023-06-10T23:08:55.633Z,101795.69
2023-06-10T23:11:22.273Z,101803.19
2023-06-10T23:13:48.851Z,101802.34
2023-06-10T23:16:15.452Z,101798.34
2023-06-10T23:18:42.767Z,101793.78
2023-06-10T23:21:10.215Z,101793.31
2023-06-10T23:23:38.536Z,101796.00
2023-06-10T23:26:05.337Z,101790.81
2023-06-10T23:28:32.190Z,101792.66
2023-06-10T23:30:58.944Z,101792.81
2023-06-10T23:33:26.916Z,101798.63
2023-06-10T23:35:53.719Z,101797.13
2023-06-10T23:38:20.856Z,101794.16
2023-06-10T23:40:47.522Z,101803.09
2023-06-10T23:43:15.515Z,101798.25
2023-06-10T23:45:42.281Z,101797.16
2023-06-10T23:48:08.994Z,101791.13
2023-06-10T23:50:37.895Z,101788.13
2023-06-10T23:53:06.508Z,101799.25
2023-06-10T23:55:35.248Z,101797.13
2023-06-10T23:58:05.013Z,101794.16
